createdAt,value
2022-08-26T00:07:23.457Z,10.32
2022-08-26T00:11:36.873Z,6.20
2022-08-26T00:25:39.334Z,5.60
2022-08-26T00:29:56.779Z,8.82
2022-08-26T00:34:13.136Z,10.05
2022-08-26T00:55:46.726Z,9.32
2022-08-26T01:05:10.477Z,9.40
2022-08-26T01:09:21.032Z,8.18
2022-08-26T01:13:54.968Z,8.75
2022-08-26T01:18:14.212Z,9.57
2022-08-26T01:22:54.187Z,6.65
2022-08-26T01:27:27.591Z,8.18
2022-08-26T01:31:55.265Z,8.40
2022-08-26T01:36:09.787Z,8.52
2022-08-26T01:40:29.485Z,7.82
2022-08-26T01:44:42.207Z,6.90
2022-08-26T01:49:11.410Z,9.93
2022-08-26T01:53:36.829Z,11.20
2022-08-26T01:57:46.958Z,9.60
2022-08-26T02:01:52.784Z,9.95
2022-08-26T02:06:10.347Z,10.65
2022-08-26T02:14:43.975Z,8.65
2022-08-26T02:19:04.893Z,9.35
2022-08-26T02:23:17.855Z,10.90
2022-08-26T02:27:38.405Z,11.60
2022-08-26T02:35:58.545Z,7.90
2022-08-26T02:40:48.608Z,7.50
2022-08-26T02:45:46.852Z,10.68
2022-08-26T02:54:55.476Z,7.53
2022-08-26T02:59:43.271Z,9.30
2022-08-26T03:04:21.417Z,7.10
2022-08-26T03:08:35.617Z,7.28
2022-08-26T03:12:47.423Z,7.32
2022-08-26T03:17:25.318Z,11.40
2022-08-26T03:21:41.039Z,7.72
2022-08-26T03:26:14.028Z,7.15
2022-08-26T03:30:52.134Z,9.43
2022-08-26T03:35:03.923Z,8.30
2022-08-26T03:39:13.636Z,9.85
2022-08-26T03:47:47.623Z,8.88
2022-08-26T03:51:58.898Z,7.25
2022-08-26T03:56:05.272Z,7.50
2022-08-26T04:00:20.172Z,9.52
2022-08-26T04:09:21.355Z,7.85
2022-08-26T04:13:49.621Z,9.05
2022-08-26T04:17:57.685Z,8.85
2022-08-26T04:22:12.096Z,7.22
2022-08-26T04:26:14.480Z,8.60
2022-08-26T04:30:37.041Z,8.35
2022-08-26T04:34:53.826Z,8.00
2022-08-26T04:39:11.297Z,8.43
2022-08-26T04:52:51.221Z,8.00
2022-08-26T04:57:17.827Z,9.00
2022-08-26T05:01:30.476Z,9.80
2022-08-26T05:05:50.111Z,9.60
2022-08-26T05:10:00.225Z,7.97
2022-08-26T05:14:17.152Z,7.80
2022-08-26T05:18:38.872Z,7.97
2022-08-26T05:32:04.816Z,8.85
2022-08-26T05:41:57.979Z,7.97
2022-08-26T05:46:28.560Z,11.88
2022-08-26T05:50:30.306Z,12.07
2022-08-26T06:46:12.595Z,7.55
2022-08-26T07:10:33.213Z,7.00
2022-08-26T07:14:35.317Z,12.15
2022-08-26T07:18:37.302Z,5.82
2022-08-26T07:22:40.891Z,6.95
2022-08-26T07:36:25.807Z,6.95
2022-08-26T07:40:57.318Z,7.18
2022-08-26T07:45:44.620Z,6.55
2022-08-26T07:55:17.525Z,6.07
2022-08-26T07:59:27.664Z,7.18
2022-08-26T08:07:53.454Z,10.13
2022-08-26T08:11:55.218Z,14.27
2022-08-26T08:15:56.703Z,19.20
2022-08-26T08:19:58.317Z,20.83
2022-08-26T08:23:59.901Z,21.85
2022-08-26T09:11:00.524Z,16.15
2022-08-26T09:15:06.123Z,21.23
2022-08-26T09:19:34.091Z,12.00
2022-08-26T09:23:38.450Z,11.75
2022-08-26T09:27:45.742Z,15.15
2022-08-26T09:35:49.110Z,12.20
2022-08-26T09:39:50.517Z,11.00
2022-08-26T09:44:09.418Z,12.50
2022-08-26T09:48:35.463Z,15.50
2022-08-26T09:52:38.037Z,11.48
2022-08-26T09:56:42.757Z,18.48
2022-08-26T10:00:55.551Z,12.35
2022-08-26T10:04:58.226Z,13.65
2022-08-26T10:09:09.746Z,12.70
2022-08-26T10:13:33.798Z,13.43
2022-08-26T10:17:47.793Z,13.07
2022-08-26T10:21:57.755Z,13.63
2022-08-26T10:26:05.922Z,10.95
2022-08-26T10:30:12.815Z,11.55
2022-08-26T10:34:16.649Z,11.75
2022-08-26T10:38:22.582Z,22.30
2022-08-26T10:42:35.425Z,16.80
2022-08-26T10:46:44.616Z,18.17
2022-08-26T10:54:48.931Z,17.67
2022-08-26T10:59:12.459Z,15.02
2022-08-26T11:03:29.795Z,10.93
2022-08-26T11:11:41.644Z,7.97
2022-08-26T11:15:44.142Z,9.43
2022-08-26T11:20:01.219Z,14.63
2022-08-26T11:24:03.719Z,11.60
2022-08-26T11:28:06.855Z,13.38
2022-08-26T11:32:27.535Z,7.63
2022-08-26T11:36:43.995Z,11.77
2022-08-26T11:40:56.211Z,8.55
2022-08-26T11:44:58.395Z,12.65
2022-08-26T11:49:06.737Z,10.93
2022-08-26T11:53:08.184Z,9.23
2022-08-26T11:57:12.866Z,15.63
2022-08-26T12:01:27.038Z,10.88
2022-08-26T12:05:36.805Z,9.13
2022-08-26T12:09:54.937Z,8.35
2022-08-26T12:14:04.137Z,11.85
2022-08-26T12:18:29.222Z,12.65
2022-08-26T12:22:36.058Z,12.20
2022-08-26T12:26:37.643Z,13.27
2022-08-26T12:30:39.583Z,11.15
2022-08-26T12:34:42.371Z,11.60
2022-08-26T12:38:43.957Z,10.77
2022-08-26T12:42:48.749Z,13.73
2022-08-26T12:46:50.250Z,10.75
2022-08-26T12:50:52.404Z,15.98
2022-08-26T12:54:59.965Z,17.15
2022-08-26T12:59:04.087Z,10.18
2022-08-26T13:03:44.476Z,10.07
2022-08-26T13:08:16.017Z,11.52
2022-08-26T13:12:35.480Z,9.90
2022-08-26T13:16:42.681Z,12.98
2022-08-26T13:20:44.898Z,14.23
2022-08-26T13:24:46.464Z,12.48
2022-08-26T13:29:01.205Z,31.33
2022-08-26T13:33:03.486Z,16.52
2022-08-26T13:37:06.043Z,14.98
2022-08-26T13:41:07.539Z,10.85
2022-08-26T13:45:10.597Z,11.48
2022-08-26T13:49:12.140Z,17.58
2022-08-26T13:53:14.767Z,15.20
2022-08-26T13:57:16.302Z,23.17
2022-08-26T14:01:21.074Z,34.42
2022-08-26T14:05:22.810Z,33.60
2022-08-26T14:09:24.320Z,23.67
2022-08-26T14:13:25.834Z,23.00
2022-08-26T14:17:27.368Z,24.67
2022-08-26T14:21:35.358Z,13.52
2022-08-26T14:25:36.785Z,17.52
2022-08-26T14:29:38.457Z,14.85
2022-08-26T14:33:39.995Z,16.48
2022-08-26T14:37:41.430Z,13.77
2022-08-26T14:41:54.405Z,16.75
2022-08-26T14:45:56.399Z,14.82
2022-08-26T14:50:00.726Z,12.13
2022-08-26T14:54:14.274Z,12.02
2022-08-26T14:58:15.737Z,13.32
2022-08-26T15:02:32.581Z,10.88
2022-08-26T15:06:35.940Z,10.57
2022-08-26T15:10:37.576Z,22.63
2022-08-26T15:14:39.517Z,10.13
2022-08-26T15:18:41.492Z,13.95
2022-08-26T15:22:43.258Z,13.73
2022-08-26T15:26:47.029Z,15.57
2022-08-26T15:30:48.454Z,16.38
2022-08-26T15:34:49.882Z,9.63
2022-08-26T15:38:51.308Z,11.00
2022-08-26T15:43:01.185Z,11.45
2022-08-26T15:47:13.178Z,7.97
2022-08-26T15:51:25.392Z,11.05
2022-08-26T15:55:26.963Z,10.55
2022-08-26T15:59:31.617Z,10.80
2022-08-26T16:03:33.259Z,13.27
2022-08-26T16:07:34.768Z,15.32
2022-08-26T16:11:36.210Z,9.15
2022-08-26T16:15:37.829Z,10.32
2022-08-26T16:19:39.290Z,22.50
2022-08-26T16:23:40.787Z,20.27
2022-08-26T16:27:46.875Z,13.50
2022-08-26T16:31:51.926Z,14.88
2022-08-26T16:35:54.138Z,15.00
2022-08-26T16:39:55.626Z,11.68
2022-08-26T16:43:57.778Z,11.27
2022-08-26T16:47:59.532Z,15.35
2022-08-26T16:52:00.960Z,11.77
2022-08-26T16:56:02.608Z,14.18
2022-08-26T17:00:27.726Z,16.55
2022-08-26T17:04:29.492Z,13.95
2022-08-26T17:08:30.943Z,13.10
2022-08-26T17:12:32.451Z,14.50
2022-08-26T17:16:34.140Z,14.68
2022-08-26T17:20:35.664Z,10.18
2022-08-26T17:24:37.728Z,9.63
2022-08-26T17:28:39.426Z,10.90
2022-08-26T17:32:42.489Z,11.13
2022-08-26T17:36:43.917Z,6.68
2022-08-26T17:40:45.453Z,7.55
2022-08-26T17:44:48.443Z,8.15
2022-08-26T17:48:50.080Z,7.32
2022-08-26T17:52:51.673Z,7.93
2022-08-26T17:56:53.619Z,9.75
2022-08-26T18:00:55.890Z,6.68
2022-08-26T18:04:57.707Z,6.30
2022-08-26T18:09:00.714Z,6.90
2022-08-26T18:13:02.219Z,6.72
2022-08-26T18:17:04.164Z,8.43
2022-08-26T18:21:26.602Z,6.57
2022-08-26T18:25:28.589Z,8.90
2022-08-26T18:29:30.124Z,6.82
2022-08-26T18:33:31.584Z,10.60
2022-08-26T18:37:34.384Z,11.80
2022-08-26T18:41:45.882Z,11.05
2022-08-26T18:45:47.394Z,8.80
2022-08-26T18:49:49.264Z,14.23
2022-08-26T18:53:51.340Z,9.05
2022-08-26T18:57:52.805Z,7.95
2022-08-26T19:01:54.702Z,9.50
2022-08-26T19:05:56.271Z,7.63
2022-08-26T19:09:57.767Z,9.43
2022-08-26T19:14:00.376Z,9.45
2022-08-26T19:18:01.824Z,10.18
2022-08-26T19:22:03.299Z,10.05
2022-08-26T19:26:06.037Z,9.00
2022-08-26T19:30:08.222Z,9.98
2022-08-26T19:34:10.183Z,8.52
2022-08-26T19:38:12.109Z,8.80
2022-08-26T19:42:13.593Z,7.63
2022-08-26T19:46:21.015Z,9.05
2022-08-26T19:50:23.044Z,8.07
2022-08-26T19:54:24.648Z,9.90
2022-08-26T19:58:26.124Z,9.25
2022-08-26T20:02:28.586Z,8.48
2022-08-26T20:06:30.150Z,10.43
2022-08-26T20:10:31.592Z,10.63
2022-08-26T20:14:35.140Z,10.00
2022-08-26T20:18:55.069Z,10.18
2022-08-26T20:22:56.529Z,9.10
2022-08-26T20:26:58.976Z,8.63
2022-08-26T20:31:00.847Z,10.38
2022-08-26T20:35:02.934Z,10.23
2022-08-26T20:39:04.925Z,10.15
2022-08-26T20:43:06.403Z,9.25
2022-08-26T20:47:08.899Z,8.88
2022-08-26T20:51:10.676Z,9.20
2022-08-26T20:55:12.209Z,10.70
2022-08-26T20:59:14.141Z,12.70
2022-08-26T21:03:15.726Z,12.57
2022-08-26T21:07:17.157Z,9.23
2022-08-26T21:11:19.626Z,14.63
2022-08-26T21:15:22.122Z,11.80
2022-08-26T21:19:23.732Z,11.98
2022-08-26T21:23:28.752Z,11.55
2022-08-26T21:27:30.718Z,10.68
2022-08-26T21:31:32.322Z,9.52
2022-08-26T21:35:33.948Z,9.82
2022-08-26T21:39:35.448Z,10.75
2022-08-26T21:43:36.864Z,8.85
2022-08-26T21:47:38.483Z,10.52
2022-08-26T21:51:43.541Z,11.50
2022-08-26T21:55:45.568Z,14.40
2022-08-26T21:59:47.296Z,13.20
2022-08-26T22:03:50.099Z,15.65
2022-08-26T22:07:51.705Z,14.50
2022-08-26T22:11:54.327Z,15.55
2022-08-26T22:15:57.669Z,15.15
2022-08-26T22:19:59.174Z,14.45
2022-08-26T22:24:02.313Z,14.50
2022-08-26T22:28:03.930Z,15.27
2022-08-26T22:32:05.734Z,13.35
2022-08-26T22:36:07.228Z,17.90
2022-08-26T22:40:10.321Z,16.33
2022-08-26T22:44:12.616Z,16.30
2022-08-26T22:48:16.491Z,16.90
2022-08-26T22:52:17.914Z,15.65
2022-08-26T22:56:21.200Z,19.65
2022-08-26T23:00:22.638Z,20.40
2022-08-26T23:04:34.180Z,19.70
2022-08-26T23:08:38.391Z,20.33
2022-08-26T23:12:40.059Z,22.35
2022-08-26T23:16:42.058Z,27.77
2022-08-26T23:20:43.659Z,38.78
2022-08-26T23:24:45.316Z,31.80
2022-08-26T23:28:47.072Z,30.70
2022-08-26T23:32:49.116Z,34.42
2022-08-26T23:36:50.790Z,32.60
2022-08-26T23:40:52.239Z,37.13
2022-08-26T23:44:53.873Z,28.70
2022-08-26T23:48:55.296Z,30.52
2022-08-26T23:53:09.005Z,26.80
2022-08-26T23:57:11.192Z,24.27
